RJCB

Tokachi-Obihiro Airport

Obihiro, Japan
TAF RJCB 161707Z 1618/1800 15007KT 9999 FEW010 BKN020 TEMPO 1712/1718 FEW005 BKN008 TEMPO 1718/1800 4000 BR FEW002 BKN005
Issued Valid From Valid To
Jul-16 @ 17:07 UTC
(3 hours ago)
Jul-16 @ 18:00 UTC
(2 hours ago)
Jul-18 @ 00:00 UTC
(-1 days ago)
Jul-16 @ 18:00 to Jul-18 @ 00:00
TAF RJCB 161707Z 1618/1800 15007KT 9999 FEW010 BKN020
Wind Visibility Clouds
150° at 7 knots 10,000+ meters
  • Few at 1,000' AGL
  • Broken at 2,000' AGL
Temporary Jul-17 @ 12:00 to Jul-17 @ 18:00
TEMPO 1712/1718 FEW005 BKN008
Clouds
  • Few at 500' AGL
  • Broken at 800' AGL
Temporary Jul-17 @ 18:00 to Jul-18 @ 00:00
TEMPO 1718/1800 4000 BR FEW002 BKN005
Visibility Clouds Conditions
4,007 meters
  • Few at 200' AGL
  • Broken at 500' AGL
  • Mist
TAF RJCB 161707Z 1618/1800 15007KT 9999 FEW010 BKN020 TEMPO 1712/1718 FEW005 BKN008 TEMPO 1718/1800 4000 BR FEW002 BKN005
Issued Jul-16 @ 17:07 UTC
(3 hours ago)
Valid From Jul-16 @ 18:00 UTC
(2 hours ago)
Valid To Jul-18 @ 00:00 UTC
(-1 days ago)
Jul-16 @ 18:00 - Jul-18 @ 00:00
Wind Visibility
150° at 7 knots 10,000+ meters
Clouds
  • Few at 1,000' AGL
  • Broken at 2,000' AGL
Temporary Jul-17 @ 12:00 - Jul-17 @ 18:00
Clouds
  • Few at 500' AGL
  • Broken at 800' AGL
Temporary Jul-17 @ 18:00 - Jul-18 @ 00:00
Clouds
  • Few at 200' AGL
  • Broken at 500' AGL
Conditions
  • Mist